Time;durP1;ratioP1;P1;durP2;ratioP2;P2;SDS_P1;SDS_P2;PMS_P1;PMS_P2;Temp;Humidity;BMP_temperature;BMP_pressure;BME280_temperature;BME280_humidity;BME280_pressure;Samples;Min_cycle;Max_cycle;Signal;HPM_P1;HPM_P2
2023/01/02 00:02:18;;;;;;;20.52;10.68;;;;;;;9.44;70.07;100655.00;2190266;80;21088;-83
2023/01/02 00:05:20;;;;;;;20.43;10.55;;;;;;;9.45;69.82;100652.69;2191767;80;20996;-84
2023/01/02 00:08:21;;;;;;;22.10;11.75;;;;;;;9.44;69.88;100643.08;2206611;79;20976;-86
2023/01/02 00:11:22;;;;;;;19.95;11.60;;;;;;;9.52;69.85;100650.30;2193785;80;20957;-87
2023/01/02 00:14:24;;;;;;;20.55;11.43;;;;;;;9.55;69.84;100642.89;2189313;80;21534;-84
2023/01/02 00:17:25;;;;;;;20.72;10.40;;;;;;;9.60;69.86;100651.23;2189918;80;20980;-86
2023/01/02 00:20:26;;;;;;;21.37;11.63;;;;;;;9.47;69.75;100618.11;2193070;80;21004;-85
2023/01/02 00:23:27;;;;;;;23.55;11.90;;;;;;;9.65;69.77;100645.47;2181093;80;21037;-85
2023/01/02 00:26:29;;;;;;;21.23;11.78;;;;;;;9.46;69.77;100620.40;2193830;79;21600;-83
2023/01/02 00:29:31;;;;;;;29.52;13.10;;;;;;;9.64;69.68;100651.27;2188507;80;21017;-84
2023/01/02 00:32:32;;;;;;;27.27;13.08;;;;;;;9.64;69.68;100651.27;2201936;80;20989;-86
2023/01/02 00:35:37;;;;;;;29.02;12.93;;;;;;;9.62;69.66;100641.80;2193895;80;21545;-83
2023/01/02 00:38:39;;;;;;;24.15;11.12;;;;;;;9.65;69.61;100646.80;2198374;80;21523;-85
2023/01/02 00:41:40;;;;;;;20.40;11.30;;;;;;;9.63;69.62;100644.80;2209429;79;20945;-87
2023/01/02 00:44:42;;;;;;;24.55;12.35;;;;;;;9.63;69.62;100644.80;2208545;80;21804;-86
2023/01/02 00:47:43;;;;;;;23.90;11.53;;;;;;;9.61;69.58;100647.59;2204381;80;20993;-86
2023/01/02 00:50:44;;;;;;;22.98;11.50;;;;;;;9.59;69.58;100631.49;2201538;80;20989;-84
2023/01/02 00:53:46;;;;;;;19.75;10.88;;;;;;;9.52;69.54;100639.20;2214907;79;20980;-84
2023/01/02 00:56:47;;;;;;;22.85;11.48;;;;;;;9.45;69.59;100635.95;2180358;80;21588;-85
2023/01/02 00:59:48;;;;;;;23.90;11.97;;;;;;;9.28;69.70;100617.21;2186792;80;20994;-84
2023/01/02 01:02:49;;;;;;;21.42;12.10;;;;;;;9.34;69.91;100629.86;2202247;79;21084;-86
2023/01/02 01:05:51;;;;;;;21.65;11.53;;;;;;;9.34;69.91;100629.86;2200001;80;21476;-84
2023/01/02 01:08:52;;;;;;;24.82;13.00;;;;;;;9.23;70.05;100627.40;2200893;79;21011;-82
2023/01/02 01:11:53;;;;;;;26.40;13.68;;;;;;;9.23;70.05;100627.40;2203254;79;21025;-86
2023/01/02 01:14:55;;;;;;;28.55;14.00;;;;;;;9.18;69.72;100619.91;2196576;80;21081;-85
2023/01/02 01:17:56;;;;;;;26.00;14.03;;;;;;;9.17;69.95;100626.66;2195616;80;20973;-85
2023/01/02 01:20:57;;;;;;;25.95;13.72;;;;;;;9.12;69.98;100632.88;2195599;79;21016;-85
2023/01/02 01:23:58;;;;;;;24.52;12.90;;;;;;;9.11;70.01;100633.87;2197101;79;21043;-83
2023/01/02 01:26:59;;;;;;;21.30;12.75;;;;;;;9.08;70.07;100628.86;2209023;80;20989;-87
2023/01/02 01:30:01;;;;;;;26.75;12.82;;;;;;;9.04;70.08;100629.65;2208055;80;20938;-83
2023/01/02 01:33:02;;;;;;;24.60;13.45;;;;;;;9.04;70.09;100622.17;2211826;80;21012;-86
2023/01/02 01:36:08;;;;;;;29.00;13.53;;;;;;;9.01;70.18;100626.44;2217828;80;21012;-85
2023/01/02 01:39:09;;;;;;;22.25;11.85;;;;;;;8.96;70.23;100617.13;2201569;80;21020;-86
2023/01/02 01:42:15;;;;;;;25.30;12.45;;;;;;;8.94;70.28;100616.43;2210717;80;20977;-82
2023/01/02 01:45:16;;;;;;;24.57;11.53;;;;;;;8.91;70.36;100614.56;2197895;80;21057;-87
2023/01/02 01:48:21;;;;;;;24.47;13.32;;;;;;;8.86;70.37;100605.72;2199471;80;21049;-87
2023/01/02 01:51:25;;;;;;;24.30;12.98;;;;;;;8.83;70.39;100606.51;2193310;80;21548;-87
2023/01/02 01:54:32;;;;;;;22.95;11.40;;;;;;;8.77;70.43;100598.66;2200227;80;21029;-85
2023/01/02 01:57:44;;;;;;;23.57;12.33;;;;;;;8.70;70.47;100590.93;2199849;79;21072;-86
2023/01/02 02:00:45;;;;;;;23.20;12.15;;;;;;;8.66;70.63;100590.88;2205991;79;20977;-87
2023/01/02 02:03:48;;;;;;;27.62;12.23;;;;;;;8.63;70.66;100583.23;2194822;80;20997;-87
2023/01/02 02:06:50;;;;;;;21.23;11.33;;;;;;;8.63;70.78;100589.85;2200235;79;21008;-84
2023/01/02 02:10:07;;;;;;;19.35;11.20;;;;;;;8.60;70.80;100581.70;2192782;80;20957;-85
2023/01/02 02:13:09;;;;;;;21.37;12.05;;;;;;;8.60;70.97;100580.38;2197859;80;21092;-83
2023/01/02 02:16:19;;;;;;;29.90;11.55;;;;;;;8.61;71.03;100581.22;2200341;80;21480;-84
2023/01/02 02:19:41;;;;;;;17.97;10.60;;;;;;;8.60;71.18;100573.77;2200388;79;21056;-86
2023/01/02 02:23:07;;;;;;;20.23;10.80;;;;;;;8.59;71.35;100569.93;2194966;79;21006;-85
2023/01/02 02:26:23;;;;;;;17.57;9.28;;;;;;;8.57;71.36;100580.67;2191037;80;21404;-85
2023/01/02 02:30:13;;;;;;;16.85;10.88;;;;;;;8.56;71.37;100579.02;2185583;80;21056;-85
2023/01/02 02:33:28;;;;;;;19.32;10.13;;;;;;;8.55;71.43;100583.11;2192056;80;20992;-87
2023/01/02 02:36:40;;;;;;;16.85;9.58;;;;;;;8.48;71.48;100574.42;2194137;80;21552;-88
2023/01/02 02:40:10;;;;;;;19.92;10.45;;;;;;;8.45;71.62;100569.42;2192885;80;20989;-86
2023/01/02 02:43:25;;;;;;;19.37;10.05;;;;;;;8.44;71.71;100566.91;2190721;79;21068;-87
2023/01/02 02:46:58;;;;;;;20.55;9.95;;;;;;;8.44;71.77;100578.81;2197940;79;20966;-85
2023/01/02 02:50:32;;;;;;;17.62;9.08;;;;;;;8.44;71.81;100582.77;2194727;80;21081;-87
2023/01/02 02:53:41;;;;;;;18.75;9.05;;;;;;;8.45;71.85;100572.56;2199411;80;21024;-84
2023/01/02 02:56:44;;;;;;;17.62;9.30;;;;;;;8.45;71.93;100572.07;2108487;83;21061;-85
2023/01/02 02:59:45;;;;;;;16.57;9.30;;;;;;;8.46;71.91;100571.58;2145556;82;21005;-89
2023/01/02 03:02:47;;;;;;;17.30;9.28;;;;;;;8.47;71.92;100577.20;2121325;83;21475;-87
2023/01/02 03:06:14;;;;;;;18.98;10.65;;;;;;;8.46;71.94;100579.02;2119223;82;20997;-85
2023/01/02 03:09:21;;;;;;;17.10;10.03;;;;;;;8.46;71.93;100576.37;2154488;82;21023;-87
2023/01/02 03:12:43;;;;;;;13.70;8.38;;;;;;;8.43;72.00;100571.38;2151883;82;21072;-85
2023/01/02 03:16:11;;;;;;;13.48;8.55;;;;;;;8.39;72.17;100562.06;2155185;82;21042;-84
2023/01/02 03:19:33;;;;;;;19.92;8.70;;;;;;;8.33;72.20;100559.09;2124163;83;21026;-86
2023/01/02 03:22:39;;;;;;;15.20;8.70;;;;;;;8.31;72.34;100548.19;2156423;82;21029;-88
2023/01/02 03:25:43;;;;;;;14.45;8.18;;;;;;;8.31;72.40;100542.08;2154874;81;21041;-86
2023/01/02 03:28:49;;;;;;;15.40;8.33;;;;;;;8.31;72.46;100547.36;2141790;81;21030;-87
2023/01/02 03:31:53;;;;;;;13.55;7.78;;;;;;;8.32;72.50;100543.73;2152814;81;21039;-84
2023/01/02 03:34:55;;;;;;;21.30;9.13;;;;;;;8.29;72.53;100540.05;2149756;81;20991;-85
2023/01/02 03:37:58;;;;;;;17.92;8.83;;;;;;;8.23;72.57;100527.41;2147882;81;21020;-84
2023/01/02 03:41:08;;;;;;;14.25;8.35;;;;;;;8.19;72.74;100536.58;2132476;81;21433;-84
2023/01/02 03:44:12;;;;;;;19.42;8.70;;;;;;;8.22;72.80;100538.94;2144715;81;21031;-85
2023/01/02 03:47:27;;;;;;;14.55;8.23;;;;;;;8.25;72.86;100541.29;2142093;81;21522;-84
2023/01/02 03:50:36;;;;;;;12.60;7.37;;;;;;;8.24;72.88;100535.17;2154179;81;20997;-86
2023/01/02 03:53:39;;;;;;;15.08;8.38;;;;;;;8.26;72.91;100529.77;2149242;81;20980;-83
2023/01/02 03:57:09;;;;;;;16.25;8.10;;;;;;;8.27;73.00;100524.80;2145066;81;20973;-83
2023/01/02 04:00:14;;;;;;;14.53;8.20;;;;;;;8.23;72.98;100515.50;2138147;81;20994;-85
2023/01/02 04:03:28;;;;;;;13.00;8.10;;;;;;;8.17;73.12;100513.44;2150350;81;21503;-84
2023/01/02 04:06:36;;;;;;;13.22;8.03;;;;;;;8.14;73.24;100515.01;2147252;81;21071;-84
2023/01/02 04:09:40;;;;;;;15.23;8.43;;;;;;;8.13;73.33;100515.50;2152775;81;21022;-85
2023/01/02 04:12:46;;;;;;;12.73;8.33;;;;;;;8.11;73.41;100512.19;2155312;81;20970;-83
2023/01/02 04:15:50;;;;;;;13.53;7.33;;;;;;;8.09;73.56;100515.45;2139225;81;21051;-86
2023/01/02 04:19:08;;;;;;;11.65;7.62;;;;;;;8.09;73.75;100514.96;2145133;81;21026;-82
2023/01/02 04:22:23;;;;;;;12.15;7.65;;;;;;;8.13;73.83;100510.71;2158170;82;21008;-84
2023/01/02 04:25:29;;;;;;;13.08;7.50;;;;;;;8.15;73.99;100504.80;2150680;82;21055;-86
2023/01/02 04:28:33;;;;;;;11.63;7.45;;;;;;;8.16;74.04;100503.81;2162684;81;21054;-85
2023/01/02 04:31:49;;;;;;;15.05;7.45;;;;;;;8.17;74.08;100504.19;2152510;82;21030;-84
2023/01/02 04:34:52;;;;;;;13.93;7.30;;;;;;;8.17;74.15;100495.76;2155970;82;21458;-85
2023/01/02 04:37:53;;;;;;;13.98;7.53;;;;;;;8.20;74.21;100494.64;2159679;82;21581;-86
2023/01/02 04:40:55;;;;;;;10.10;7.10;;;;;;;8.21;74.23;100492.34;2159591;81;21014;-85
2023/01/02 04:43:58;;;;;;;12.55;7.72;;;;;;;8.20;74.20;100486.22;2156337;81;21047;-86
2023/01/02 04:46:59;;;;;;;12.82;7.60;;;;;;;8.21;74.30;100479.12;2155842;82;20965;-83
2023/01/02 04:50:01;;;;;;;17.67;8.05;;;;;;;8.17;74.30;100483.03;2152728;82;21012;-85
2023/01/02 04:53:02;;;;;;;12.05;7.05;;;;;;;8.17;74.47;100485.68;2153724;82;21080;-87
2023/01/02 04:56:04;;;;;;;10.95;6.58;;;;;;;8.15;74.50;100483.16;2156091;82;20983;-87
2023/01/02 04:59:05;;;;;;;10.32;6.87;;;;;;;8.16;74.58;100477.38;2158147;82;21027;-82
2023/01/02 05:02:06;;;;;;;10.80;6.58;;;;;;;8.17;74.72;100481.72;2159440;82;20913;-86
2023/01/02 05:05:09;;;;;;;11.03;6.67;;;;;;;8.18;74.95;100489.98;2157674;82;21009;-82
2023/01/02 05:08:10;;;;;;;10.82;6.70;;;;;;;8.19;74.90;100486.34;2159267;82;21001;-85
2023/01/02 05:11:18;;;;;;;10.60;6.62;;;;;;;8.20;74.95;100488.03;2155173;82;20979;-84
2023/01/02 05:14:19;;;;;;;13.15;6.80;;;;;;;8.20;75.06;100478.78;2155421;82;21526;-84
2023/01/02 05:17:20;;;;;;;12.40;7.40;;;;;;;8.19;75.05;100491.63;2151386;82;21027;-85
2023/01/02 05:20:22;;;;;;;10.45;6.85;;;;;;;8.17;75.01;100483.03;2150266;82;20991;-85
2023/01/02 05:26:43;;;;;;;10.85;6.45;;;;;;;8.10;75.01;100478.78;2155645;81;21004;-85
2023/01/02 05:29:44;;;;;;;11.93;6.50;;;;;;;8.09;75.16;100477.95;2199821;80;21006;-86
2023/01/02 05:32:45;;;;;;;10.18;6.28;;;;;;;8.08;75.24;100473.66;2198363;80;21081;-87
2023/01/02 05:35:46;;;;;;;8.48;5.45;;;;;;;8.08;75.25;100470.16;2209641;79;20992;-85
2023/01/02 05:38:48;;;;;;;10.80;6.60;;;;;;;8.08;75.33;100481.59;2199085;80;21044;-84
2023/01/02 05:41:49;;;;;;;8.70;6.00;;;;;;;8.08;75.32;100477.63;2207018;80;21055;-84
2023/01/02 05:44:51;;;;;;;8.58;5.17;;;;;;;8.05;75.32;100467.80;2203009;80;20975;-86
2023/01/02 05:47:52;;;;;;;9.98;5.65;;;;;;;8.03;75.44;100466.64;2205704;80;21711;-86
2023/01/02 05:50:53;;;;;;;10.23;6.20;;;;;;;8.04;75.48;100462.18;2208759;79;21016;-85
2023/01/02 05:53:54;;;;;;;8.35;5.78;;;;;;;8.04;75.59;100464.33;2209781;80;21092;-84
2023/01/02 05:56:56;;;;;;;8.48;5.75;;;;;;;8.04;76.10;100468.79;2206421;80;20966;-84
2023/01/02 05:59:57;;;;;;;9.08;5.90;;;;;;;8.01;75.87;100465.94;2198622;80;21032;-86
2023/01/02 06:02:58;;;;;;;12.43;6.12;;;;;;;7.99;75.82;100460.44;2201399;80;21015;-86
2023/01/02 06:06:08;;;;;;;8.63;5.72;;;;;;;7.92;76.57;100456.23;2197892;78;21444;-86
2023/01/02 06:09:13;;;;;;;10.08;6.17;;;;;;;7.86;76.58;100460.76;2200411;80;21037;-85
2023/01/02 06:12:14;;;;;;;9.75;5.53;;;;;;;7.81;76.66;100460.34;2207203;80;21483;-84
2023/01/02 06:15:15;;;;;;;8.50;6.00;;;;;;;7.78;77.01;100451.38;2197862;79;21012;-87
2023/01/02 06:18:16;;;;;;;10.43;6.53;;;;;;;7.75;77.20;100454.30;2207043;79;21611;-86
2023/01/02 06:21:20;;;;;;;13.00;6.50;;;;;;;7.71;77.04;100451.58;2202307;80;20993;-83
2023/01/02 06:24:21;;;;;;;10.00;6.15;;;;;;;7.68;77.59;100450.05;2201939;80;21520;-85
2023/01/02 06:27:22;;;;;;;9.00;6.58;;;;;;;7.63;78.49;100435.12;2194338;80;21084;-86
2023/01/02 06:30:23;;;;;;;9.20;5.72;;;;;;;7.59;78.19;100439.83;2187794;80;20965;-84
2023/01/02 06:33:24;;;;;;;8.53;6.35;;;;;;;7.57;78.08;100437.84;2182490;79;21448;-85
2023/01/02 06:36:33;;;;;;;9.15;6.30;;;;;;;7.56;78.39;100440.11;2192633;80;20978;-85
2023/01/02 06:39:34;;;;;;;9.75;6.15;;;;;;;7.57;78.84;100435.20;2187466;80;20993;-86
2023/01/02 06:42:35;;;;;;;12.23;7.70;;;;;;;7.57;79.32;100428.60;2190794;80;21043;-84
2023/01/02 06:45:36;;;;;;;10.00;6.05;;;;;;;7.59;79.26;100430.59;2190974;80;20984;-83
2023/01/02 06:48:38;;;;;;;7.47;5.45;;;;;;;7.62;79.57;100432.12;2194772;80;21452;-85
2023/01/02 06:51:39;;;;;;;10.00;6.97;;;;;;;7.66;79.69;100429.56;2199546;79;20981;-84
2023/01/02 06:54:40;;;;;;;8.73;6.30;;;;;;;7.70;79.92;100430.11;2187064;80;21012;-86
2023/01/02 06:57:41;;;;;;;12.78;7.12;;;;;;;7.77;79.91;100428.09;2190805;80;21013;-82
2023/01/02 07:00:42;;;;;;;8.78;6.70;;;;;;;7.84;80.28;100437.59;2220865;78;21008;-85
2023/01/02 07:03:44;;;;;;;8.20;6.17;;;;;;;7.88;80.75;100439.46;2196194;79;21025;-83
2023/01/02 07:06:45;;;;;;;13.98;6.95;;;;;;;7.93;80.04;100434.59;2184560;80;21095;-82
2023/01/02 07:09:46;;;;;;;11.38;6.50;;;;;;;7.95;80.06;100434.80;2189344;80;20961;-84
2023/01/02 07:12:47;;;;;;;12.78;6.62;;;;;;;7.98;80.29;100433.19;2190647;80;21511;-83
2023/01/02 07:15:48;;;;;;;11.00;6.72;;;;;;;8.00;80.37;100429.92;2193192;80;21032;-86
2023/01/02 07:18:52;;;;;;;11.00;6.33;;;;;;;8.02;80.30;100437.20;2196580;80;20990;-83
2023/01/02 07:21:53;;;;;;;10.23;6.15;;;;;;;8.05;80.40;100434.30;2188132;80;21056;-83
2023/01/02 07:24:55;;;;;;;7.53;5.60;;;;;;;8.11;80.72;100450.54;2197013;79;21532;-82
2023/01/02 07:27:58;;;;;;;9.28;5.60;;;;;;;8.15;80.60;100438.72;2193516;80;20976;-83
2023/01/02 07:31:05;;;;;;;10.32;5.90;;;;;;;8.18;80.88;100435.30;2191027;79;21013;-84
2023/01/02 07:34:08;;;;;;;10.60;6.33;;;;;;;8.23;80.97;100437.52;2201563;79;21032;-86
2023/01/02 07:37:09;;;;;;;8.93;6.37;;;;;;;8.26;80.79;100435.41;2187531;80;21012;-83
2023/01/02 07:40:11;;;;;;;10.72;7.35;;;;;;;8.33;80.76;100442.27;2203308;80;21048;-83
2023/01/02 07:43:12;;;;;;;10.68;7.45;;;;;;;8.39;80.55;100436.46;2205376;79;20989;-85
2023/01/02 07:46:18;;;;;;;9.03;6.53;;;;;;;8.46;80.47;100442.82;2202529;79;21024;-86
2023/01/02 07:49:19;;;;;;;8.83;5.83;;;;;;;8.49;80.40;100445.17;2203860;80;21032;-84
2023/01/02 07:52:20;;;;;;;10.25;5.80;;;;;;;8.54;80.39;100435.49;2198885;80;20973;-85
2023/01/02 07:55:22;;;;;;;9.00;6.35;;;;;;;8.58;80.66;100436.84;2198875;79;21035;-84
2023/01/02 07:58:24;;;;;;;8.40;5.60;;;;;;;8.62;80.27;100438.73;2205072;79;20993;-82
2023/01/02 08:01:27;;;;;;;10.98;6.67;;;;;;;8.66;80.27;100444.89;2206166;80;21029;-82
2023/01/02 08:04:28;;;;;;;12.90;6.28;;;;;;;8.70;80.29;100444.09;2211496;80;21460;-84
2023/01/02 08:07:29;;;;;;;10.40;6.20;;;;;;;8.73;80.31;100445.98;2209886;80;20977;-84
2023/01/02 08:10:31;;;;;;;10.55;6.50;;;;;;;8.75;80.12;100440.53;2194296;80;20978;-86
2023/01/02 08:13:32;;;;;;;11.57;7.08;;;;;;;8.74;80.05;100433.09;2163718;80;21021;-84
2023/01/02 08:16:33;;;;;;;10.05;6.30;;;;;;;8.77;80.06;100441.22;2203000;80;21048;-83
2023/01/02 08:19:34;;;;;;;11.35;6.50;;;;;;;8.81;80.11;100449.20;2181413;80;21541;-82
2023/01/02 08:22:36;;;;;;;10.98;6.53;;;;;;;8.88;80.03;100453.43;2168493;80;21054;-82
2023/01/02 08:25:37;;;;;;;10.82;6.53;;;;;;;8.93;79.88;100449.36;2176464;80;21024;-83
2023/01/02 08:28:40;;;;;;;11.10;6.62;;;;;;;8.98;79.80;100444.92;2189217;80;20975;-81
2023/01/02 08:31:42;;;;;;;11.22;6.00;;;;;;;8.98;79.83;100449.75;2201305;79;20964;-83
2023/01/02 08:34:43;;;;;;;11.12;6.72;;;;;;;8.96;80.09;100435.83;2198882;80;20946;-83
2023/01/02 08:37:44;;;;;;;9.05;5.97;;;;;;;8.97;79.86;100437.48;2197397;80;21016;-83
2023/01/02 08:40:45;;;;;;;11.45;7.30;;;;;;;9.00;80.02;100442.15;2192437;80;21520;-84
2023/01/02 08:43:46;;;;;;;12.30;6.85;;;;;;;9.03;80.00;100441.84;2199457;80;21033;-80
2023/01/02 08:46:47;;;;;;;13.05;7.60;;;;;;;9.04;80.11;100437.74;2203055;79;21607;-80
2023/01/02 08:49:48;;;;;;;18.70;6.90;;;;;;;9.10;80.08;100441.61;2210975;79;20985;-82
2023/01/02 08:52:51;;;;;;;10.93;6.62;;;;;;;9.16;80.05;100432.56;2192937;80;21509;-82
2023/01/02 08:55:52;;;;;;;11.18;6.20;;;;;;;9.21;80.04;100430.80;2188451;80;21048;-82
2023/01/02 08:59:07;;;;;;;9.05;6.00;;;;;;;9.29;80.11;100428.70;2177031;80;20966;-81
2023/01/02 09:02:14;;;;;;;8.35;5.85;;;;;;;9.43;79.96;100438.30;2194839;80;21024;-82
2023/01/02 09:05:15;;;;;;;9.28;6.40;;;;;;;9.69;79.71;100430.91;2178382;79;21048;-82
2023/01/02 09:08:16;;;;;;;9.28;6.35;;;;;;;9.97;79.55;100421.50;2181930;81;21530;-85
2023/01/02 09:11:22;;;;;;;8.80;6.28;;;;;;;10.23;79.26;100422.32;2178064;81;21103;-84
2023/01/02 09:14:24;;;;;;;10.65;6.50;;;;;;;10.39;78.53;100418.97;2183641;80;20955;-84
2023/01/02 09:17:25;;;;;;;8.48;5.72;;;;;;;10.55;78.15;100406.25;2163171;81;21552;-85
2023/01/02 09:20:26;;;;;;;9.58;6.55;;;;;;;10.67;77.48;100412.95;2177873;80;21041;-84
2023/01/02 09:23:30;;;;;;;10.32;6.45;;;;;;;10.75;76.99;100403.67;2189444;80;21494;-84
2023/01/02 09:26:31;;;;;;;8.48;5.67;;;;;;;10.92;76.66;100394.44;2161829;80;21571;-85
2023/01/02 09:29:32;;;;;;;13.98;6.05;;;;;;;11.08;76.79;100401.11;2149819;82;21640;-85
2023/01/02 09:32:34;;;;;;;8.95;5.75;;;;;;;11.21;76.29;100400.65;2152395;82;21002;-87
2023/01/02 09:35:35;;;;;;;8.93;6.25;;;;;;;11.24;75.29;100414.10;2143270;82;21543;-86
2023/01/02 09:38:36;;;;;;;9.60;6.30;;;;;;;11.34;75.76;100407.62;2143598;82;20974;-86
2023/01/02 09:41:47;;;;;;;8.23;5.83;;;;;;;11.69;75.38;100408.81;2150447;82;21009;-87
2023/01/02 09:44:53;;;;;;;8.10;5.80;;;;;;;12.02;75.04;100405.63;2156594;82;21041;-87
2023/01/02 09:47:57;;;;;;;7.70;6.10;;;;;;;12.22;73.66;100395.44;2153454;82;21508;-87
2023/01/02 09:51:00;;;;;;;6.45;5.33;;;;;;;12.42;73.82;100390.58;2152781;82;21046;-82
2023/01/02 09:54:03;;;;;;;9.25;5.87;;;;;;;12.61;72.47;100386.66;2147092;82;21017;-84
2023/01/02 09:57:28;;;;;;;8.58;5.85;;;;;;;12.82;72.41;100385.56;2149092;82;21032;-83
2023/01/02 10:00:34;;;;;;;11.60;5.45;;;;;;;13.04;71.56;100385.27;2147269;82;21480;-84
2023/01/02 10:03:48;;;;;;;10.13;5.65;;;;;;;13.23;72.10;100398.61;2145259;81;21541;-84
2023/01/02 10:06:57;;;;;;;8.80;5.17;;;;;;;13.41;72.37;100394.38;2152553;81;21643;-85
2023/01/02 10:10:29;;;;;;;10.68;5.60;;;;;;;13.62;71.54;100372.36;2145568;81;21049;-85
2023/01/02 10:13:38;;;;;;;5.90;4.65;;;;;;;13.59;68.46;100368.72;2150172;81;21512;-84
2023/01/02 10:16:45;;;;;;;6.87;4.15;;;;;;;13.54;69.07;100376.43;2140604;82;21078;-84
2023/01/02 10:19:54;;;;;;;8.28;4.50;;;;;;;13.46;69.28;100380.02;2146821;82;21029;-83
2023/01/02 10:23:00;;;;;;;6.50;5.20;;;;;;;13.47;69.45;100379.50;2157288;82;21016;-83
2023/01/02 10:26:06;;;;;;;7.90;4.97;;;;;;;13.50;69.14;100379.14;2162017;81;21068;-83
2023/01/02 10:29:33;;;;;;;7.22;4.42;;;;;;;13.64;69.42;100380.50;2176843;81;21005;-84
2023/01/02 10:32:36;;;;;;;7.90;4.78;;;;;;;14.01;68.76;100389.48;2168736;80;21009;-84
2023/01/02 10:35:57;;;;;;;7.80;4.67;;;;;;;14.36;68.76;100391.13;2174193;80;20968;-83
2023/01/02 10:39:06;;;;;;;9.05;5.17;;;;;;;14.64;68.36;100389.98;2173840;81;21034;-84
2023/01/02 10:42:11;;;;;;;5.42;4.62;;;;;;;14.76;67.62;100396.49;2176730;81;21057;-85
2023/01/02 10:45:16;;;;;;;8.85;5.40;;;;;;;14.67;67.43;100404.78;2170413;80;21005;-83
2023/01/02 10:48:21;;;;;;;10.58;5.95;;;;;;;14.56;66.92;100404.77;2170799;81;20982;-85
2023/01/02 10:51:23;;;;;;;8.03;5.87;;;;;;;14.43;67.25;100404.56;2172051;81;21046;-84
2023/01/02 10:54:25;;;;;;;9.83;6.05;;;;;;;14.35;67.26;100411.63;2165396;81;21237;-85
2023/01/02 10:57:35;;;;;;;15.90;6.55;;;;;;;14.35;67.35;100422.31;2177322;81;20966;-86
2023/01/02 11:00:36;;;;;;;11.80;5.70;;;;;;;14.39;67.37;100408.59;2162330;81;20978;-86
2023/01/02 11:03:37;;;;;;;18.90;6.60;;;;;;;14.39;67.13;100400.10;2117642;83;21131;-85
2023/01/02 11:07:02;;;;;;;10.88;5.58;;;;;;;14.43;67.09;100407.23;2168427;80;20982;-84
2023/01/02 11:10:06;;;;;;;11.10;5.40;;;;;;;14.44;66.81;100408.36;2166637;81;21490;-85
2023/01/02 11:13:15;;;;;;;10.35;5.72;;;;;;;14.47;66.68;100409.84;2170713;81;21010;-84
2023/01/02 11:16:18;;;;;;;11.50;5.03;;;;;;;14.48;66.01;100412.84;2174532;80;21547;-83
2023/01/02 11:19:21;;;;;;;10.50;5.33;;;;;;;14.46;66.16;100410.86;2173219;81;21001;-84
2023/01/02 11:22:34;;;;;;;8.58;5.28;;;;;;;14.45;66.24;100405.21;2171304;81;21493;-83
2023/01/02 11:25:43;;;;;;;12.43;5.85;;;;;;;14.45;65.72;100395.86;2171147;80;21894;-83
2023/01/02 11:28:45;;;;;;;9.50;5.65;;;;;;;14.37;65.14;100390.63;2201188;80;21043;-84
2023/01/02 11:31:50;;;;;;;9.83;5.58;;;;;;;14.28;65.34;100400.56;2201650;79;20981;-83
2023/01/02 11:34:59;;;;;;;7.80;4.70;;;;;;;14.22;64.64;100393.27;2195653;80;21024;-83
2023/01/02 11:38:01;;;;;;;8.95;4.97;;;;;;;14.20;64.78;100381.45;2200962;80;21318;-82
2023/01/02 11:41:02;;;;;;;8.80;5.72;;;;;;;14.14;64.33;100355.52;2198223;79;21041;-83
2023/01/02 11:44:04;;;;;;;11.97;6.20;;;;;;;14.03;64.02;100341.30;2200088;79;21520;-83
2023/01/02 11:47:09;;;;;;;10.28;6.20;;;;;;;13.92;63.67;100337.75;2199156;80;21004;-83
2023/01/02 11:50:24;;;;;;;8.95;5.42;;;;;;;13.79;64.37;100338.37;2203623;79;21071;-83
2023/01/02 11:53:33;;;;;;;8.98;5.25;;;;;;;13.76;64.67;100340.89;2198963;80;20997;-82
2023/01/02 11:56:39;;;;;;;8.35;5.15;;;;;;;13.74;64.07;100334.94;2201958;79;21647;-83
2023/01/02 11:59:46;;;;;;;6.78;5.15;;;;;;;13.73;64.24;100331.92;2205520;79;21012;-83
2023/01/02 12:02:51;;;;;;;10.45;5.10;;;;;;;13.72;64.49;100332.13;2198263;79;21501;-84
2023/01/02 12:06:18;;;;;;;11.05;5.22;;;;;;;13.71;64.46;100332.60;2180843;80;21043;-81
2023/01/02 12:09:34;;;;;;;10.63;5.30;;;;;;;13.69;64.38;100345.31;2195964;80;20983;-83
2023/01/02 12:12:55;;;;;;;8.80;4.97;;;;;;;13.68;64.51;100341.82;2204615;80;20973;-83
2023/01/02 12:16:11;;;;;;;9.00;5.30;;;;;;;13.70;63.71;100341.63;2208720;80;21068;-83
2023/01/02 12:20:04;;;;;;;7.95;4.92;;;;;;;13.68;64.49;100332.97;2200660;79;21020;-82
2023/01/02 12:23:24;;;;;;;10.03;5.10;;;;;;;13.66;64.41;100331.84;2207082;80;21006;-83
2023/01/02 12:26:52;;;;;;;11.38;4.83;;;;;;;13.63;64.36;100328.20;2196061;80;20982;-83
2023/01/02 12:30:17;;;;;;;6.58;4.97;;;;;;;13.61;64.58;100332.05;2214378;80;21059;-83
2023/01/02 12:33:27;;;;;;;22.25;12.55;;;;;;;13.58;64.40;100328.42;2204755;80;20989;-83
2023/01/02 12:36:52;;;;;;;14.87;9.70;;;;;;;13.57;64.81;100330.74;2202634;79;20998;-82
2023/01/02 12:40:38;;;;;;;10.82;5.10;;;;;;;13.56;64.65;100335.77;2193069;80;22154;-83
2023/01/02 12:44:06;;;;;;;7.35;5.42;;;;;;;13.52;64.62;100329.16;2183020;80;21512;-83
2023/01/02 12:47:28;;;;;;;32.15;7.50;;;;;;;13.47;64.92;100336.86;2201589;79;21084;-82
2023/01/02 12:50:53;;;;;;;10.23;5.75;;;;;;;13.43;64.94;100346.55;2200502;80;21778;-83
2023/01/02 12:54:20;;;;;;;11.40;6.67;;;;;;;13.39;64.92;100356.40;2160731;80;21391;-82
2023/01/02 12:57:48;;;;;;;9.30;6.10;;;;;;;13.36;65.13;100352.25;2186725;79;21017;-82
2023/01/02 13:01:01;;;;;;;13.08;6.37;;;;;;;13.35;64.90;100351.94;2207206;80;20942;-83
2023/01/02 13:04:16;;;;;;;10.58;6.42;;;;;;;13.34;65.30;100341.45;2196436;79;21000;-83
2023/01/02 13:07:35;;;;;;;29.27;7.30;;;;;;;13.32;65.27;100348.78;2198491;78;21020;-82
2023/01/02 13:10:38;;;;;;;9.85;6.58;;;;;;;13.31;65.40;100352.47;2193950;79;21001;-80
2023/01/02 13:13:40;;;;;;;7.75;5.62;;;;;;;13.30;65.32;100355.64;2203957;79;21008;-81
2023/01/02 13:16:46;;;;;;;8.13;5.80;;;;;;;13.30;65.23;100349.48;2197219;80;20961;-82
2023/01/02 13:20:11;;;;;;;8.33;5.50;;;;;;;13.26;65.29;100345.00;2194836;80;20993;-82
2023/01/02 13:23:33;;;;;;;20.52;12.58;;;;;;;13.23;65.47;100348.84;2203461;80;22062;-82
2023/01/02 13:26:34;;;;;;;7.47;5.85;;;;;;;13.21;65.48;100350.03;2187611;79;21027;-82
2023/01/02 13:29:43;;;;;;;10.23;7.03;;;;;;;13.18;65.59;100341.06;2192593;80;21512;-82
2023/01/02 13:32:46;;;;;;;9.10;6.58;;;;;;;13.18;65.64;100334.40;2201889;80;21408;-83
2023/01/02 13:35:49;;;;;;;10.23;6.97;;;;;;;13.14;65.59;100328.58;2201173;79;21004;-83
2023/01/02 13:39:17;;;;;;;10.60;6.35;;;;;;;13.12;65.54;100319.10;2201232;79;21048;-83
2023/01/02 13:45:52;;;;;;;;;;;;;;;13.10;65.63;100338.45;2203717;80;21024;-79
2023/01/02 13:49:04;;;;;;;11.48;6.67;;;;;;;13.11;65.66;100330.78;2194011;80;20156;-80
2023/01/02 13:52:05;;;;;;;13.10;7.40;;;;;;;13.10;65.68;100333.95;2201033;80;20965;-81
2023/01/02 13:55:24;;;;;;;13.40;6.90;;;;;;;13.10;65.69;100345.11;2200786;80;21001;-82
2023/01/02 13:58:41;;;;;;;17.30;7.53;;;;;;;13.07;65.77;100355.62;2197229;80;21508;-82
2023/01/02 14:02:14;;;;;;;10.98;7.65;;;;;;;13.04;65.73;100349.83;2185535;79;20997;-81
2023/01/02 14:05:59;;;;;;;11.57;7.33;;;;;;;13.01;65.81;100349.16;2205546;80;21036;-83
2023/01/02 14:09:20;;;;;;;9.88;6.53;;;;;;;12.98;65.79;100348.19;2157695;80;21559;-83
2023/01/02 14:12:21;;;;;;;;;;;;;;;12.96;65.83;100345.37;2170306;80;21529;-82
2023/01/02 14:15:25;;;;;;;11.30;7.85;;;;;;;12.91;65.92;100349.06;2207858;80;20123;-82
2023/01/02 14:18:32;;;;;;;11.68;8.93;;;;;;;12.85;65.99;100354.59;2203888;80;21047;-82
2023/01/02 14:21:53;;;;;;;13.90;8.33;;;;;;;12.82;66.06;100364.27;2202744;80;20969;-83
2023/01/02 14:25:00;;;;;;;9.28;7.70;;;;;;;12.77;66.16;100368.77;2203477;79;21012;-83
2023/01/02 14:28:04;;;;;;;12.95;7.50;;;;;;;12.68;66.29;100365.01;2183932;80;21001;-83
2023/01/02 14:31:17;;;;;;;14.03;7.12;;;;;;;12.62;66.38;100365.70;2185157;80;21075;-84
2023/01/02 14:34:24;;;;;;;11.55;7.33;;;;;;;12.55;66.53;100373.54;2200031;79;21049;-83
2023/01/02 14:37:40;;;;;;;14.78;8.05;;;;;;;12.48;66.67;100370.75;2199300;79;21021;-81